Latest Coastal Weather Observations for Lord Howe Island

IDN60701

Issued at 12:11 am EST Wednesday 1 June 2016 (issued every 10 minutes, with the page automatically refreshed every 10 minutes)

About coastal observations | Map of coastal stations | Coastal observations for NSW | Marine services | Other Formats
Station Details ID: 200839 Name: LORD HOWE ISLAND AERO Lat: -31.54 Lon: 159.08 Height: 5.0 m
Data from the previous 72 hours. | See also: Recent months at Lord Howe Island
Date/Time
EST
Temp

°C
Wind Pressure Rain
since 9am
mm
Weather Cloud Vis
km
Sea
Height
m
Swell
Dir
 
Speed
knots
Gust
knots
hPa Trend Height
m
Period
s
Dir
01/12:00am 13.5 SSW 3 4 1024.5 - 1.6 - Partly cloudy 10 - - - -
 
Date/Time
EST
Temp

°C
Wind Pressure Rain
since 9am
mm
Weather Cloud Vis
km
Sea
Height
m
Swell
Dir
 
Speed
knots
Gust
knots
hPa Trend Height
m
Period
s
Dir
31/11:30pm 15.2 SSW 4 5 1024.9 - 1.6 - Mostly cloudy 10 - - - -
31/11:00pm 14.2 SSE 1 4 1025.2 - 1.6 - - 10 - - - -
31/10:30pm 16.1 ESE 5 7 1025.2 - 1.6 - Partly cloudy 10 - - - -
31/10:00pm 14.7 NE 2 4 1025.3 - 1.6 - Partly cloudy 10 - - - -
31/09:30pm 16.0 ESE 4 11 1025.3 - 1.6 - Partly cloudy 10 - - - -
31/09:00pm 15.9 SSE 4 9 1025.2 - 1.6 - - 10 - - - -
31/08:30pm 16.2 SSE 4 8 1025.3 - 1.6 - Mostly clear 10 - - - -
31/08:00pm 16.8 SSW 4 10 1025.3 - 1.6 - - 10 - - - -
31/07:30pm 17.2 SSW 8 12 1025.1 - 1.6 - - 10 - - - -
31/07:00pm 17.4 SE 5 11 1024.9 - 1.6 - Partly cloudy 10 - - - -
31/06:30pm 16.8 SSW 4 7 1024.7 - 1.6 - Partly cloudy 10 - - - -
31/06:00pm 16.9 SSE 3 6 1024.6 - 1.6 - - 10 - - - -
31/05:30pm 17.0 SSE 5 9 1024.4 - 1.6 - - 10 - - - -
31/05:00pm 16.8 SE 4 7 1024.2 - 1.6 - Partly cloudy 10 - - - -
31/04:30pm 17.4 S 7 11 1024.0 - 1.6 - Partly cloudy 10 - - - -
31/04:00pm 17.8 SSE 5 10 1023.9 - 1.6 - Partly cloudy 10 - - - -
31/03:30pm 18.1 SE 5 8 1023.9 - 1.6 - Mostly clear 10 - - - -
31/03:00pm 18.3 SE 5 9 1024.1 - 1.6 - Mostly clear 10 - - - -
31/02:30pm 17.7 SE 6 9 1024.1 - 1.6 - Mostly cloudy 10 - - - -
31/02:00pm 18.8 ESE 4 6 1024.1 - 1.6 - Mostly clear 10 - - - -
31/01:30pm 18.2 ESE 5 11 1024.0 - 1.6 Showers Mostly clear 10 - - - -
31/01:00pm 18.5 SSE 5 12 1023.9 - 1.6 - Mostly clear 10 - - - -
31/12:30pm 17.4 ESE 6 10 1024.2 - 1.6 Showers Mostly clear 10 - - - -
31/12:00pm 18.0 SSW 4 8 1024.5 - 1.4 - Mostly clear 10 - - - -
31/11:30am 16.5 SSW 9 19 1024.9 - 1.4 - Mostly cloudy 5 - - - -
31/11:00am 20.1 SSW 5 10 1025.1 - 0.2 - Partly cloudy 10 - - - -
31/10:30am 19.4 SE 5 9 1025.6 - 0.0 - Mostly clear 10 - - - -
31/10:00am 18.9 ESE 4 8 1025.7 - 0.0 Showers Mostly clear 10 - - - -
31/09:30am 19.1 S 4 7 1025.7 - 0.0 - Partly cloudy 10 - - - -
31/09:00am 18.8 S 5 7 1025.8 - 0.0 - Mostly clear 10 - - - -
31/08:30am 18.9 S 5 9 1025.4 - 0.0 - Partly cloudy 10 - - - -
31/08:00am 18.0 S 6 9 1025.1 - 0.0 - Mostly clear 10 - - - -
31/07:30am 17.5 S 6 9 1025.0 - 0.0 - Mostly clear 10 - - - -
31/07:00am 16.9 SSW 3 5 1024.8 - 0.0 - Partly cloudy 10 - - - -
31/06:30am 16.8 SSW 5 9 1024.5 - 0.0 - Partly cloudy 10 - - - -
31/06:00am 17.5 SSW 6 10 1024.2 - 0.0 - Partly cloudy 10 - - - -
31/05:30am 16.9 SSE 3 5 1024.0 - 0.0 - Mostly cloudy 10 - - - -
31/05:00am 17.3 S 5 11 1023.6 - 0.0 - Partly cloudy 10 - - - -
31/04:30am 15.8 S 3 5 1023.4 - 0.0 - Partly cloudy 10 - - - -
31/04:00am 17.1 SSW 4 8 1023.3 - 0.0 - - 10 - - - -
31/03:30am 16.8 S 4 8 1023.2 - 0.0 - Partly cloudy 10 - - - -
31/03:00am 14.7 S 1 4 1023.1 - 0.0 - Partly cloudy 10 - - - -
31/02:30am 16.1 SSE 2 5 1023.2 - 0.0 - - 10 - - - -
31/02:00am 16.6 SSW 4 6 1023.2 - 0.0 - Partly cloudy 10 - - - -
31/01:30am 17.4 SSW 8 16 1023.3 - 0.0 - Partly cloudy 10 - - - -
31/01:00am 16.8 SSW 4 7 1023.5 - 0.0 - Partly cloudy 10 - - - -
31/12:30am 17.5 SSW 7 12 1023.5 - 0.0 - Partly cloudy 10 - - - -
31/12:00am 16.9 SSW 6 11 1023.4 - 0.0 - Partly cloudy 10 - - - -
 
Date/Time
EST
Temp

°C
Wind Pressure Rain
since 9am
mm
Weather Cloud Vis
km
Sea
Height
m
Swell
Dir
 
Speed
knots
Gust
knots
hPa Trend Height
m
Period
s
Dir
30/11:30pm 15.9 S 4 7 1023.5 - 0.0 - Mostly clear 10 - - - -
30/11:00pm 17.2 SSW 12 21 1023.4 - 0.0 - Partly cloudy 10 - - - -
30/10:30pm 18.1 SSW 9 14 1023.3 - 0.0 - Partly cloudy 10 - - - -
30/10:00pm 18.2 SW 9 14 1023.3 - 0.0 - Partly cloudy 10 - - - -
30/09:30pm 18.3 SSW 10 15 1023.1 - 0.0 - - 10 - - - -
30/09:00pm 18.3 SSW 10 15 1023.0 - 0.0 - Partly cloudy 10 - - - -
30/08:30pm 18.4 SW 11 16 1023.0 - 0.0 - Mostly clear 10 - - - -
30/08:00pm 18.6 SW 10 17 1022.9 - 0.0 - Partly cloudy 10 - - - -
30/07:30pm 18.7 SW 11 16 1022.8 - 0.0 - Partly cloudy 10 - - - -
30/07:00pm 18.7 SW 12 17 1022.4 - 0.0 - Partly cloudy 10 - - - -
30/06:30pm 18.8 SW 10 15 1022.2 - 0.0 - Partly cloudy 10 - - - -
30/06:00pm 18.6 SW 10 16 1021.9 - 0.0 - - 10 - - - -
30/05:30pm 18.5 SW 11 17 1021.7 - 0.0 - - 10 - - - -
30/05:00pm 18.3 SW 10 15 1021.4 - 0.0 - Partly cloudy 10 - - - -
30/04:30pm 18.3 SW 11 17 1021.1 - 0.0 - Partly cloudy 10 - - - -
30/04:09pm 18.1 SW 15 26 1021.1 - 0.0 Showers Mostly cloudy 8 - - - -
30/04:00pm 19.0 SW 12 19 1020.9 - 0.0 - Partly cloudy 10 - - - -
30/03:30pm 19.2 SW 12 18 1020.5 - 0.0 - Partly cloudy 10 - - - -
30/03:00pm 19.3 SW 13 19 1020.3 - 0.0 - Partly cloudy 10 - - - -
30/02:30pm 19.6 WSW 15 20 1020.1 - 0.0 - Partly cloudy 10 - - - -
30/02:00pm 19.8 SW 14 21 1020.0 - 0.0 - Mostly clear 10 - - - -
30/01:30pm 19.7 SW 15 22 1019.8 - 0.0 - Mostly clear 10 - - - -
30/01:17pm 19.7 SW 15 25 1019.9 - 0.0 - Mostly clear 10 - - - -
30/01:00pm 19.6 SW 14 23 1019.9 - 0.0 - Partly cloudy 10 - - - -
30/12:30pm 19.2 WSW 17 22 1019.9 - 0.0 - Partly cloudy 10 - - - -
30/12:00pm 18.4 WSW 18 23 1020.4 - 0.0 - Mostly clear 10 - - - -
30/11:30am 19.7 WSW 14 19 1020.6 - 0.0 - Mostly clear 10 - - - -
30/11:00am 19.8 SW 12 19 1020.9 - 0.0 - Mostly clear 10 - - - -
30/10:30am 19.7 SW 13 19 1021.1 - 0.0 - Mostly clear 10 - - - -
30/10:00am 19.5 SW 13 20 1021.3 - 0.0 - Mostly clear 10 - - - -
30/09:30am 19.5 SW 13 21 1021.2 - 0.0 - Mostly clear 10 - - - -
30/09:00am 19.4 SW 13 18 1020.9 - 0.0 - Partly cloudy 10 - - - -
30/08:30am 19.2 SW 12 18 1020.7 - 2.8 - Cloudy 10 - - - -
30/08:00am 18.8 SW 12 17 1020.4 - 2.8 - Mostly clear 10 - - - -
30/07:30am 18.7 SW 12 18 1020.1 - 2.8 - Mostly clear 10 - - - -
30/07:00am 18.6 SW 11 16 1019.9 - 2.8 - Partly cloudy 10 - - - -
30/06:30am 18.6 SW 11 15 1019.5 - 2.8 - Partly cloudy 10 - - - -
30/06:00am 18.1 WSW 12 16 1019.0 - 2.8 - Partly cloudy 10 - - - -
30/05:30am 17.8 W 21 27 1018.7 - 2.8 - Cloudy 10 - - - -
30/05:14am 17.8 W 21 25 1018.5 - 2.8 - Partly cloudy 10 - - - -
30/05:00am 18.6 SW 13 20 1018.3 - 2.8 - Partly cloudy 10 - - - -
30/04:30am 18.6 SW 12 19 1018.0 - 2.8 - Partly cloudy 10 - - - -
30/04:00am 18.4 SW 13 19 1017.8 - 2.8 - Partly cloudy 10 - - - -
30/03:30am 18.3 SW 13 21 1017.6 - 2.8 - - 10 - - - -
30/03:00am 18.2 SW 13 20 1017.5 - 2.8 - Partly cloudy 10 - - - -
30/02:30am 18.4 SW 14 19 1017.3 - 2.8 - - 10 - - - -
30/02:00am 18.5 SW 15 21 1017.2 - 2.8 - Partly cloudy 10 - - - -
30/01:30am 18.6 SW 14 19 1017.1 - 2.8 - Partly cloudy 10 - - - -
30/01:04am 19.2 SW 15 25 1016.9 - 2.8 - Partly cloudy 10 - - - -
30/01:00am 19.0 SW 14 22 1017.0 - 2.8 - Partly cloudy 10 - - - -
30/12:30am 18.8 SW 11 17 1016.8 - 2.8 - - 10 - - - -
30/12:00am 18.9 SW 11 17 1016.8 - 2.8 - Partly cloudy 10 - - - -
 
Date/Time
EST
Temp

°C
Wind Pressure Rain
since 9am
mm
Weather Cloud Vis
km
Sea
Height
m
Swell
Dir
 
Speed
knots
Gust
knots
hPa Trend Height
m
Period
s
Dir
29/11:30pm 18.8 SW 12 18 1016.8 - 2.8 - Cloudy 10 - - - -
29/11:00pm 18.8 SW 12 17 1017.0 - 2.8 - Partly cloudy 10 - - - -
29/10:30pm 18.9 SW 12 17 1016.9 - 2.8 - Partly cloudy 10 - - - -
29/10:00pm 18.7 SW 10 16 1016.9 - 2.8 - Partly cloudy 10 - - - -
29/09:30pm 18.9 SW 12 18 1016.9 - 2.8 - Partly cloudy 10 - - - -
29/09:00pm 18.6 SW 11 15 1016.7 - 2.8 - Partly cloudy 10 - - - -
29/08:30pm 18.3 SW 10 14 1016.4 - 2.8 - - 10 - - - -
29/08:00pm 17.9 SW 10 15 1016.1 - 2.8 - Partly cloudy 10 - - - -
29/07:30pm 18.6 SW 10 16 1015.7 - 2.6 - Partly cloudy 10 - - - -
29/07:00pm 18.1 SW 11 15 1015.5 - 2.6 - - 10 - - - -
29/06:36pm 17.3 SW 9 13 1015.3 - 2.6 - Partly cloudy 10 - - - -
29/06:30pm 17.0 SW 9 12 1015.3 - 2.6 - Partly cloudy 10 - - - -
29/06:15pm 17.1 WSW 11 19 1015.3 - 1.2 - Partly cloudy 5 - - - -
29/06:00pm 18.5 SW 10 14 1015.0 - 0.0 - - 10 - - - -
29/05:30pm 18.7 SW 12 16 1014.6 - 0.0 - Mostly clear 10 - - - -
29/05:00pm 18.8 SW 12 16 1014.2 - 0.0 - Partly cloudy 10 - - - -
29/04:30pm 18.8 SW 14 20 1013.8 - 0.0 - Partly cloudy 10 - - - -
29/04:00pm 19.1 SW 12 17 1013.2 - 0.0 - - 10 - - - -
29/03:30pm 19.2 SW 12 18 1012.9 - 0.0 - Partly cloudy 10 - - - -
29/03:00pm 19.0 SW 13 18 1012.6 - 0.0 - Partly cloudy 10 - - - -
29/02:30pm 19.5 SW 12 17 1012.2 - 0.0 - Partly cloudy 10 - - - -
29/02:00pm 19.9 WSW 14 21 1012.0 - 0.0 - - 10 - - - -
29/01:30pm 19.3 SW 13 19 1011.9 - 0.0 - Partly cloudy 10 - - - -
29/01:25pm 19.3 SW 15 25 1011.9 - 0.0 - Partly cloudy 10 - - - -
29/01:00pm 19.5 WSW 15 20 1011.8 - 0.0 - Partly cloudy 10 - - - -
29/12:39pm 19.6 WSW 15 25 1011.7 - 0.0 - Partly cloudy 10 - - - -
29/12:30pm 19.7 WSW 16 23 1011.6 - 0.0 - Partly cloudy 10 - - - -
29/12:00pm 20.0 WSW 17 22 1011.6 - 0.0 - Partly cloudy 10 - - - -
29/11:30am 19.9 WSW 17 23 1011.7 - 0.0 - - 10 - - - -
29/11:00am 19.4 WSW 14 22 1011.7 - 0.0 - Partly cloudy 10 - - - -
29/10:30am 20.0 WSW 18 23 1011.7 - 0.0 - - 10 - - - -
29/10:00am 19.5 WSW 17 22 1011.9 - 0.0 - Partly cloudy 10 - - - -
29/09:30am 19.4 SW 15 22 1011.9 - 0.0 - - 10 - - - -
29/09:00am 19.1 WSW 15 22 1011.6 - 0.0 - Partly cloudy 10 - - - -
29/08:30am 18.6 SW 15 22 1011.2 - 10.6 - Mostly cloudy 10 - - - -
29/08:00am 18.6 SW 18 25 1010.7 - 10.6 - Partly cloudy 10 - - - -
29/07:30am 18.7 WSW 23 29 1010.2 - 10.6 - Partly cloudy 10 - - - -
29/07:00am 18.6 WSW 25 30 1009.7 - 10.6 - Partly cloudy 10 - - - -
29/06:30am 17.9 WSW 25 31 1009.4 - 10.6 - Partly cloudy 10 - - - -
29/06:24am 17.5 WSW 23 27 1009.4 - 10.6 - Partly cloudy 10 - - - -
29/06:06am 16.2 WSW 27 35 1009.1 - 10.6 - Partly cloudy 6 - - - -
29/06:01am 17.6 WSW 26 35 1009.1 - 10.4 - Partly cloudy 10 - - - -
29/06:00am 18.2 WSW 25 30 1009.1 - 10.2 - Partly cloudy 10 - - - -
29/05:44am 17.3 WSW 26 33 1009.0 - 10.2 - Partly cloudy 6 - - - -
29/05:30am 18.7 WSW 26 32 1008.9 R 10.0 Fine Partly cloudy 20 - - - -
29/05:04am 18.1 WSW 29 35 1008.3 - 10.0 - Partly cloudy 10 - - - -
29/05:00am 17.9 WSW 29 37 1008.2 - 10.0 - Partly cloudy 10 - - - -
29/04:44am 17.3 WSW 26 41 1007.9 - 10.0 - Partly cloudy 4 - - - -
29/04:30am 18.3 WSW 23 30 1007.7 - 8.8 - - 10 - - - -
29/04:00am 18.0 WSW 26 32 1007.4 - 8.8 - Partly cloudy 10 - - - -
29/03:30am 18.3 WSW 24 31 1007.1 - 8.8 - Partly cloudy 10 - - - -
29/03:00am 18.3 WSW 27 36 1006.6 - 8.8 - Partly cloudy 10 - - - -
29/02:59am 18.3 W 26 36 1006.6 - 8.8 - Partly cloudy 10 - - - -
29/02:30am 17.5 WSW 26 32 1006.6 - 8.8 - - 10 - - - -
29/02:00am 17.3 WSW 25 31 1006.5 - 8.8 - Partly cloudy 10 - - - -
29/01:30am 16.8 WSW 24 30 1006.7 - 8.8 - Partly cloudy 10 - - - -
29/01:00am 16.0 WSW 22 30 1007.2 - 8.8 - Partly cloudy 10 - - - -
29/12:50am 15.8 WSW 26 36 1007.4 - 8.8 - Partly cloudy 10 - - - -
29/12:42am 15.6 WSW 26 36 1007.4 - 8.8 - Partly cloudy 8 - - - -
29/12:39am 15.5 WSW 26 35 1007.5 - 8.8 - Partly cloudy 6 - - - -
29/12:30am 16.0 WSW 24 36 1007.5 - 8.6 - Partly cloudy 10 - - - -
29/12:25am 15.7 WSW 23 33 1007.3 - 8.6 - Partly cloudy 10 - - - -
29/12:18am 15.6 SW 22 31 1007.3 - 8.6 - Partly cloudy 10 - - - -
29/12:08am 16.6 W 27 43 1007.1 - 8.6 - Partly cloudy 10 - - - -
29/12:00am 17.2 W 27 35 1006.8 - 8.6 - - 10 - - - -

Other Formats:

Comma delimited format used in spreadsheet applications
http://www.bom.gov.au/fwo/IDN60701/IDN60701.94995.axf

JavaScript Object Notation format (JSON) in row-major order
http://www.bom.gov.au/fwo/IDN60701/IDN60701.94995.json